createdAt,value
2019-02-11T00:00:48.869Z,0.00
2019-02-11T00:03:17.276Z,0.00
2019-02-11T00:05:45.354Z,0.10
2019-02-11T00:08:13.767Z,0.10
2019-02-11T00:10:42.152Z,0.10
2019-02-11T00:13:11.058Z,0.20
2019-02-11T00:15:39.539Z,0.00
2019-02-11T00:18:07.612Z,0.10
2019-02-11T00:20:36.014Z,0.03
2019-02-11T00:23:04.093Z,0.10
2019-02-11T00:25:32.489Z,0.10
2019-02-11T00:28:00.898Z,0.10
2019-02-11T00:30:29.284Z,0.10
2019-02-11T00:32:57.762Z,0.00
2019-02-11T00:35:26.368Z,0.10
2019-02-11T00:37:54.765Z,0.00
2019-02-11T00:40:23.160Z,0.00
2019-02-11T00:42:51.577Z,0.07
2019-02-11T00:45:19.983Z,0.10
2019-02-11T00:47:48.373Z,0.10
2019-02-11T00:50:16.779Z,0.00
2019-02-11T00:52:45.172Z,0.00
2019-02-11T00:55:13.652Z,0.10
2019-02-11T00:57:42.055Z,0.10
2019-02-11T01:00:11.192Z,0.10
2019-02-11T01:02:39.760Z,0.10
2019-02-11T01:05:08.176Z,0.00
2019-02-11T01:07:36.244Z,0.20
2019-02-11T01:10:07.394Z,0.00
2019-02-11T01:12:35.802Z,0.00
2019-02-11T01:15:05.552Z,0.10
2019-02-11T01:17:33.939Z,0.13
2019-02-11T01:20:02.616Z,0.00
2019-02-11T01:22:31.003Z,0.00
2019-02-11T01:24:59.413Z,0.07
2019-02-11T01:27:27.817Z,0.10
2019-02-11T01:29:55.885Z,0.10
2019-02-11T01:32:24.282Z,0.10
2019-02-11T01:34:52.684Z,0.03
2019-02-11T01:37:21.079Z,0.20
2019-02-11T01:39:49.480Z,0.00
2019-02-11T01:42:17.882Z,0.00
2019-02-11T01:44:46.292Z,0.23
2019-02-11T01:47:14.686Z,0.10
2019-02-11T01:49:43.080Z,0.10
2019-02-11T01:52:11.472Z,0.00
2019-02-11T01:54:39.876Z,0.00
2019-02-11T01:57:08.273Z,0.10
2019-02-11T01:59:36.684Z,0.23
2019-02-11T02:02:05.088Z,0.00
2019-02-11T02:04:33.505Z,0.17
2019-02-11T02:07:01.900Z,0.10
2019-02-11T02:09:30.308Z,0.10
2019-02-11T02:11:58.399Z,0.10
2019-02-11T02:14:26.477Z,0.10
2019-02-11T02:16:54.620Z,0.10
2019-02-11T02:19:23.030Z,0.10
2019-02-11T02:21:51.428Z,0.10
2019-02-11T02:24:19.828Z,0.20
2019-02-11T02:26:48.224Z,0.00
2019-02-11T02:29:16.633Z,0.10
2019-02-11T02:31:45.032Z,0.10
2019-02-11T02:34:13.444Z,0.10
2019-02-11T02:36:41.837Z,0.10
2019-02-11T02:39:10.240Z,0.00
2019-02-11T02:41:38.637Z,0.10
2019-02-11T02:44:06.716Z,0.10
2019-02-11T02:46:35.109Z,0.10
2019-02-11T02:49:03.501Z,0.10
2019-02-11T02:51:31.907Z,0.00
2019-02-11T02:54:00.309Z,0.10
2019-02-11T02:56:28.712Z,0.10
2019-02-11T02:58:57.581Z,0.20
2019-02-11T03:01:25.980Z,0.10
2019-02-11T03:03:54.378Z,0.10
2019-02-11T03:06:22.785Z,0.10
2019-02-11T03:08:51.210Z,0.10
2019-02-11T03:11:19.608Z,0.10
2019-02-11T03:13:48.006Z,0.10
2019-02-11T03:16:16.407Z,0.20
2019-02-11T03:18:44.805Z,0.10
2019-02-11T03:21:13.205Z,0.10
2019-02-11T03:23:41.607Z,0.10
2019-02-11T03:26:10.009Z,0.20
2019-02-11T03:28:38.410Z,0.10
2019-02-11T03:31:06.809Z,0.13
2019-02-11T03:33:54.224Z,0.20
2019-02-11T03:36:22.623Z,0.20
2019-02-11T03:38:51.020Z,0.10
2019-02-11T03:41:19.424Z,0.27
2019-02-11T03:43:47.497Z,0.10
2019-02-11T03:46:15.909Z,0.13
2019-02-11T03:48:43.979Z,0.10
2019-02-11T03:51:12.380Z,0.17
2019-02-11T03:53:40.943Z,0.10
2019-02-11T03:56:09.355Z,0.10
2019-02-11T03:58:37.427Z,0.10
2019-02-11T04:01:05.835Z,0.00
2019-02-11T04:03:33.905Z,0.20
2019-02-11T04:06:02.313Z,0.10
2019-02-11T04:08:30.708Z,0.20
2019-02-11T04:10:59.129Z,0.20
2019-02-11T04:13:27.511Z,0.10
2019-02-11T04:15:55.926Z,0.10
2019-02-11T04:18:24.318Z,0.20
2019-02-11T04:20:52.821Z,0.10
2019-02-11T04:23:40.557Z,0.20
2019-02-11T04:26:08.964Z,0.30
2019-02-11T04:28:37.028Z,0.10
2019-02-11T04:31:05.433Z,0.20
2019-02-11T04:33:33.831Z,0.23
2019-02-11T04:36:02.231Z,0.30
2019-02-11T04:38:30.644Z,0.30
2019-02-11T04:40:59.048Z,0.23
2019-02-11T04:43:27.122Z,0.20
2019-02-11T04:45:55.524Z,0.20
2019-02-11T04:48:23.589Z,0.20
2019-02-11T04:50:51.992Z,0.30
2019-02-11T04:53:20.384Z,0.20
2019-02-11T04:55:48.792Z,0.50
2019-02-11T04:58:17.191Z,0.30
2019-02-11T05:00:45.597Z,0.30
2019-02-11T05:03:13.666Z,0.13
2019-02-11T05:06:01.081Z,0.27
2019-02-11T05:08:29.476Z,0.20
2019-02-11T05:10:57.548Z,0.20
2019-02-11T05:13:25.947Z,0.20
2019-02-11T05:15:54.349Z,0.20
2019-02-11T05:18:22.747Z,0.20
2019-02-11T05:20:51.154Z,0.30
2019-02-11T05:23:19.218Z,0.20
2019-02-11T05:25:47.296Z,0.20
2019-02-11T05:28:15.770Z,0.33
2019-02-11T05:30:43.852Z,0.33
2019-02-11T05:33:12.397Z,0.30
2019-02-11T05:35:40.790Z,0.10
2019-02-11T05:38:09.196Z,0.30
2019-02-11T05:40:37.588Z,0.30
2019-02-11T05:43:05.992Z,0.30
2019-02-11T05:45:34.462Z,0.30
2019-02-11T05:48:02.869Z,0.40
2019-02-11T05:50:31.256Z,0.23
2019-02-11T05:52:59.331Z,0.37
2019-02-11T05:55:27.729Z,0.20
2019-02-11T05:57:56.165Z,0.20
2019-02-11T06:00:24.573Z,0.30
2019-02-11T06:02:52.976Z,0.30
2019-02-11T06:05:21.058Z,0.33
2019-02-11T06:07:49.459Z,0.43
2019-02-11T06:10:17.856Z,0.50
2019-02-11T06:12:46.265Z,0.47
2019-02-11T06:15:14.653Z,0.20
2019-02-11T06:17:43.140Z,0.40
2019-02-11T06:20:11.541Z,0.50
2019-02-11T06:22:39.939Z,0.67
2019-02-11T06:25:08.810Z,0.50
2019-02-11T06:27:37.385Z,0.30
2019-02-11T06:30:06.993Z,0.30
2019-02-11T06:32:35.395Z,0.33
2019-02-11T06:35:05.740Z,0.30
2019-02-11T06:37:33.816Z,0.20
2019-02-11T06:40:01.889Z,0.20
2019-02-11T06:42:29.968Z,0.33
2019-02-11T06:44:58.360Z,0.40
2019-02-11T06:47:26.435Z,0.37
2019-02-11T06:49:54.833Z,0.33
2019-02-11T06:52:23.236Z,0.57
2019-02-11T06:54:51.628Z,0.40
2019-02-11T06:57:20.032Z,0.30
2019-02-11T06:59:48.432Z,0.30
2019-02-11T07:02:16.840Z,0.53
2019-02-11T07:04:45.605Z,0.40
2019-02-11T07:07:13.688Z,0.50
2019-02-11T07:09:42.081Z,0.57
2019-02-11T07:12:10.194Z,0.53
2019-02-11T07:14:38.595Z,0.50
2019-02-11T07:17:06.993Z,0.60
2019-02-11T07:19:35.389Z,0.50
2019-02-11T07:22:03.796Z,0.40
2019-02-11T07:24:32.188Z,0.60
2019-02-11T07:27:00.608Z,0.47
2019-02-11T07:29:28.688Z,0.50
2019-02-11T07:31:57.077Z,0.30
2019-02-11T07:34:25.154Z,0.80
2019-02-11T07:36:53.588Z,0.40
2019-02-11T07:39:22.301Z,0.40
2019-02-11T07:42:08.690Z,0.30
2019-02-11T07:44:38.716Z,0.30
2019-02-11T07:47:08.110Z,0.40
2019-02-11T07:49:36.550Z,0.30
2019-02-11T07:52:04.950Z,0.40
2019-02-11T07:54:33.362Z,0.40
2019-02-11T07:57:01.752Z,0.50
2019-02-11T07:59:30.160Z,0.40
2019-02-11T08:01:58.558Z,0.40
2019-02-11T08:04:26.628Z,0.40
2019-02-11T08:06:55.027Z,0.40
2019-02-11T08:09:42.442Z,0.40
2019-02-11T08:12:10.845Z,0.50
2019-02-11T08:14:39.249Z,0.43
2019-02-11T08:17:07.317Z,0.50
2019-02-11T08:19:35.720Z,0.57
2019-02-11T08:22:03.784Z,0.63
2019-02-11T08:24:32.188Z,0.67
2019-02-11T08:27:00.253Z,0.47
2019-02-11T08:29:28.656Z,0.60
2019-02-11T08:31:56.728Z,0.70
2019-02-11T08:34:25.139Z,0.70
2019-02-11T08:36:53.529Z,0.60
2019-02-11T08:39:21.936Z,0.67
2019-02-11T08:41:50.332Z,0.60
2019-02-11T08:44:18.741Z,0.73
2019-02-11T08:46:47.140Z,1.00
2019-02-11T08:49:15.553Z,0.50
2019-02-11T08:51:43.945Z,0.57
2019-02-11T08:54:12.360Z,0.60
2019-02-11T08:56:40.753Z,0.53
2019-02-11T08:59:09.157Z,0.60
2019-02-11T09:01:37.567Z,0.63
2019-02-11T09:04:05.636Z,0.57
2019-02-11T09:06:34.216Z,0.60
2019-02-11T09:09:02.998Z,0.70
2019-02-11T09:11:31.392Z,0.70
2019-02-11T09:13:59.793Z,0.50
2019-02-11T09:16:28.193Z,0.50
2019-02-11T09:18:56.596Z,0.50
2019-02-11T09:21:24.988Z,0.40
2019-02-11T09:23:53.390Z,0.60
2019-02-11T09:26:21.782Z,0.67
2019-02-11T09:28:50.188Z,0.60
2019-02-11T09:31:18.583Z,0.70
2019-02-11T09:33:46.999Z,0.47
2019-02-11T09:36:15.393Z,0.63
2019-02-11T09:38:43.811Z,0.70
2019-02-11T09:41:12.269Z,0.83
2019-02-11T09:43:40.679Z,0.67
2019-02-11T09:46:08.777Z,0.70
2019-02-11T09:48:37.177Z,0.70
2019-02-11T09:51:06.120Z,0.60
2019-02-11T09:53:34.517Z,0.60
2019-02-11T09:56:02.932Z,0.40
2019-02-11T09:58:31.330Z,0.53
2019-02-11T10:01:00.074Z,0.90
2019-02-11T10:03:28.463Z,0.50
2019-02-11T10:05:56.872Z,0.90
2019-02-11T10:08:25.273Z,0.70
2019-02-11T10:10:53.680Z,0.80
2019-02-11T10:13:22.076Z,0.77
2019-02-11T10:15:50.486Z,0.57
2019-02-11T10:18:18.566Z,0.70
2019-02-11T10:20:46.650Z,0.80
2019-02-11T10:23:15.041Z,0.97
2019-02-11T10:25:43.440Z,0.80
2019-02-11T10:28:12.499Z,0.73
2019-02-11T10:30:41.176Z,0.77
2019-02-11T10:33:09.830Z,0.60
2019-02-11T10:35:42.236Z,0.80
2019-02-11T10:38:08.798Z,1.00
2019-02-11T10:40:37.208Z,0.80
2019-02-11T10:43:05.673Z,0.73
2019-02-11T10:45:36.665Z,0.70
2019-02-11T10:48:04.640Z,0.73
2019-02-11T10:50:33.051Z,0.60
2019-02-11T10:53:01.447Z,0.70
2019-02-11T10:55:29.852Z,0.70
2019-02-11T10:57:58.249Z,0.90
2019-02-11T11:00:26.701Z,0.80
2019-02-11T11:02:55.092Z,0.60
2019-02-11T11:05:23.529Z,0.80
2019-02-11T11:07:51.997Z,0.90
2019-02-11T11:10:26.363Z,0.70
2019-02-11T11:12:54.805Z,0.97
2019-02-11T11:15:23.059Z,0.70
2019-02-11T11:17:51.456Z,0.67
2019-02-11T11:20:20.106Z,1.00
2019-02-11T11:22:48.668Z,0.80
2019-02-11T11:25:17.630Z,0.90
2019-02-11T11:27:45.682Z,1.13
2019-02-11T11:30:16.137Z,0.70
2019-02-11T11:32:45.372Z,0.90
2019-02-11T11:35:15.795Z,0.83
2019-02-11T11:37:44.265Z,0.50
2019-02-11T11:40:17.824Z,0.83
2019-02-11T11:42:45.887Z,1.00
2019-02-11T11:45:18.160Z,0.77
2019-02-11T11:47:46.928Z,0.93
2019-02-11T11:50:17.031Z,0.60
2019-02-11T11:52:45.421Z,1.30
2019-02-11T11:55:32.883Z,1.23
2019-02-11T11:58:01.320Z,1.30
2019-02-11T12:00:32.239Z,0.90
2019-02-11T12:03:03.881Z,1.00
2019-02-11T12:05:30.762Z,0.80
2019-02-11T12:07:59.176Z,1.17
2019-02-11T12:10:27.320Z,0.80
2019-02-11T12:12:55.388Z,0.80
2019-02-11T12:15:24.646Z,1.07
2019-02-11T12:17:52.790Z,0.80
2019-02-11T12:20:21.261Z,0.90
2019-02-11T12:22:49.841Z,1.00
2019-02-11T12:25:18.711Z,0.80
2019-02-11T12:27:47.148Z,0.83
2019-02-11T12:30:26.307Z,0.77
2019-02-11T12:32:56.105Z,0.80
2019-02-11T12:35:24.981Z,1.10
2019-02-11T12:37:53.394Z,0.97
2019-02-11T12:40:21.921Z,0.70
2019-02-11T12:42:52.611Z,1.07
2019-02-11T12:45:24.870Z,1.10
2019-02-11T12:47:53.339Z,0.77
2019-02-11T12:50:21.807Z,0.80
2019-02-11T12:52:50.265Z,0.80
2019-02-11T12:55:19.302Z,0.90
2019-02-11T12:57:47.711Z,0.60
2019-02-11T13:00:18.882Z,0.80
2019-02-11T13:02:47.967Z,0.83
2019-02-11T13:05:21.119Z,0.80
2019-02-11T13:07:47.154Z,0.90
2019-02-11T13:10:16.879Z,1.00
2019-02-11T13:12:45.159Z,0.83
2019-02-11T13:15:34.030Z,1.00
2019-02-11T13:17:44.536Z,0.90
2019-02-11T13:20:17.789Z,0.80
2019-02-11T13:22:45.992Z,0.90
2019-02-11T13:25:14.759Z,0.70
2019-02-11T13:27:43.396Z,0.80
2019-02-11T13:30:23.495Z,0.90
2019-02-11T13:32:51.901Z,0.60
2019-02-11T13:35:20.490Z,0.80
2019-02-11T13:37:48.955Z,0.80
2019-02-11T13:40:17.359Z,0.70
2019-02-11T13:42:45.797Z,0.80
2019-02-11T13:45:33.532Z,1.00
2019-02-11T13:48:02.015Z,1.00
2019-02-11T13:50:30.160Z,0.63
2019-02-11T13:52:58.636Z,0.70
2019-02-11T13:55:30.710Z,0.47
2019-02-11T13:57:58.524Z,0.73
2019-02-11T14:00:31.883Z,0.97
2019-02-11T14:03:02.999Z,0.60
2019-02-11T14:05:32.532Z,1.03
2019-02-11T14:08:02.041Z,0.80
2019-02-11T14:10:31.136Z,0.80
2019-02-11T14:13:00.384Z,0.87
2019-02-11T14:15:28.941Z,0.60
2019-02-11T14:18:10.826Z,0.50
2019-02-11T14:20:28.670Z,0.60
2019-02-11T14:22:57.090Z,0.90
2019-02-11T14:25:42.124Z,0.67
2019-02-11T14:27:55.674Z,1.00
2019-02-11T14:30:24.090Z,0.70
2019-02-11T14:32:52.549Z,0.47
2019-02-11T14:35:21.416Z,0.50
2019-02-11T14:37:50.001Z,0.67
2019-02-11T14:40:18.370Z,0.60
2019-02-11T14:42:46.780Z,0.57
2019-02-11T14:45:19.789Z,0.70
2019-02-11T14:47:48.267Z,0.73
2019-02-11T14:50:16.323Z,0.70
2019-02-11T14:52:44.732Z,0.60
2019-02-11T14:55:12.813Z,0.53
2019-02-11T14:57:40.906Z,0.60
2019-02-11T15:00:19.990Z,0.60
2019-02-11T15:02:48.452Z,0.60
2019-02-11T15:05:17.686Z,0.70
2019-02-11T15:07:46.530Z,0.50
2019-02-11T15:10:15.745Z,0.50
2019-02-11T15:12:43.884Z,0.50
2019-02-11T15:15:13.424Z,0.50
2019-02-11T15:17:43.362Z,0.50
2019-02-11T15:20:13.696Z,0.60
2019-02-11T15:22:42.127Z,0.70
2019-02-11T15:25:15.960Z,0.60
2019-02-11T15:27:44.353Z,0.83
2019-02-11T15:30:15.373Z,0.73
2019-02-11T15:32:43.761Z,0.80
2019-02-11T15:35:12.168Z,0.60
2019-02-11T15:37:40.574Z,0.50
2019-02-11T15:40:10.216Z,0.60
2019-02-11T15:42:38.764Z,0.70
2019-02-11T15:45:10.076Z,0.70
2019-02-11T15:47:38.536Z,0.70
2019-02-11T15:50:09.752Z,0.50
2019-02-11T15:52:38.144Z,0.40
2019-02-11T15:55:09.562Z,0.70
2019-02-11T15:57:37.954Z,0.60
2019-02-11T16:00:07.641Z,0.50
2019-02-11T16:02:35.713Z,0.63
2019-02-11T16:05:06.563Z,0.60
2019-02-11T16:07:34.958Z,0.43
2019-02-11T16:10:04.493Z,0.90
2019-02-11T16:12:32.897Z,1.07
2019-02-11T16:15:20.645Z,0.83
2019-02-11T16:17:48.715Z,0.97
2019-02-11T16:20:17.263Z,0.60
2019-02-11T16:22:45.725Z,0.63
2019-02-11T16:25:14.269Z,0.50
2019-02-11T16:27:42.804Z,1.00
2019-02-11T16:30:16.324Z,0.60
2019-02-11T16:32:44.793Z,0.60
2019-02-11T16:35:13.737Z,1.00
2019-02-11T16:37:42.218Z,0.70
2019-02-11T16:40:16.345Z,0.70
2019-02-11T16:42:44.741Z,0.70
2019-02-11T16:45:13.156Z,0.57
2019-02-11T16:47:41.547Z,0.97
2019-02-11T16:50:10.811Z,1.43
2019-02-11T16:52:39.199Z,0.90
2019-02-11T16:55:12.166Z,1.40
2019-02-11T16:57:40.565Z,0.60
2019-02-11T17:00:14.636Z,0.80
2019-02-11T17:02:44.012Z,0.70
2019-02-11T17:05:13.098Z,0.57
2019-02-11T17:07:42.443Z,0.70
2019-02-11T17:10:12.304Z,0.70
2019-02-11T17:12:40.709Z,0.60
2019-02-11T17:15:19.060Z,0.87
2019-02-11T17:17:47.198Z,0.53
2019-02-11T17:20:15.914Z,0.70
2019-02-11T17:22:44.865Z,0.70
2019-02-11T17:25:14.200Z,2.93
2019-02-11T17:27:42.749Z,2.50
2019-02-11T17:30:18.276Z,5.77
2019-02-11T17:32:46.676Z,1.63
2019-02-11T17:35:14.757Z,1.83
2019-02-11T17:37:42.853Z,3.67
2019-02-11T17:40:13.400Z,0.83
2019-02-11T17:42:41.789Z,0.70
2019-02-11T17:45:23.480Z,0.57
2019-02-11T17:47:51.877Z,0.63
2019-02-11T17:50:19.952Z,0.50
2019-02-11T17:53:09.561Z,0.80
2019-02-11T17:55:37.972Z,0.90
2019-02-11T17:58:06.368Z,1.20
2019-02-11T18:00:39.725Z,1.27
2019-02-11T18:03:08.117Z,1.23
2019-02-11T18:05:36.525Z,1.00
2019-02-11T18:08:04.920Z,0.90
2019-02-11T18:10:33.336Z,1.07
2019-02-11T18:13:01.733Z,1.30
2019-02-11T18:15:30.153Z,1.37
2019-02-11T18:17:58.548Z,1.50
2019-02-11T18:20:26.945Z,1.10
2019-02-11T18:22:55.021Z,0.70
2019-02-11T18:25:23.092Z,1.13
2019-02-11T18:27:51.168Z,1.00
2019-02-11T18:30:19.568Z,1.10
2019-02-11T18:32:47.973Z,0.77
2019-02-11T18:35:21.096Z,0.80
2019-02-11T18:37:49.512Z,1.20
2019-02-11T18:40:17.920Z,1.80
2019-02-11T18:42:46.393Z,5.00
2019-02-11T18:45:16.327Z,0.83
2019-02-11T18:47:44.419Z,1.07
2019-02-11T18:50:14.457Z,0.90
2019-02-11T18:52:42.808Z,0.80
2019-02-11T18:55:14.272Z,0.87
2019-02-11T18:57:42.672Z,0.80
2019-02-11T19:00:14.180Z,0.70
2019-02-11T19:02:42.261Z,0.70
2019-02-11T19:05:10.657Z,0.90
2019-02-11T19:07:39.064Z,0.90
2019-02-11T19:10:10.396Z,0.73
2019-02-11T19:12:38.804Z,0.80
2019-02-11T19:15:10.240Z,0.90
2019-02-11T19:17:38.327Z,0.70
2019-02-11T19:20:07.856Z,0.60
2019-02-11T19:22:36.271Z,0.87
2019-02-11T19:25:07.005Z,0.80
2019-02-11T19:27:35.416Z,0.90
2019-02-11T19:30:05.256Z,0.73
2019-02-11T19:32:33.705Z,0.70
2019-02-11T19:35:02.092Z,0.83
2019-02-11T19:37:30.485Z,0.90
2019-02-11T19:39:58.889Z,0.70
2019-02-11T19:42:27.293Z,0.70
2019-02-11T19:44:55.700Z,0.77
2019-02-11T19:47:23.761Z,0.90
2019-02-11T19:49:52.188Z,0.80
2019-02-11T19:52:20.236Z,0.90
2019-02-11T19:54:48.644Z,1.20
2019-02-11T19:57:17.047Z,0.77
2019-02-11T19:59:45.448Z,0.80
2019-02-11T20:02:14.017Z,0.93
2019-02-11T20:04:42.421Z,1.10
2019-02-11T20:07:10.820Z,0.90
2019-02-11T20:09:39.228Z,1.63
2019-02-11T20:12:07.311Z,1.00
2019-02-11T20:14:35.716Z,0.87
2019-02-11T20:17:04.113Z,1.20
2019-02-11T20:19:32.628Z,1.00
2019-02-11T20:22:01.025Z,1.20
2019-02-11T20:24:29.455Z,0.90
2019-02-11T20:26:57.857Z,1.10
2019-02-11T20:29:26.260Z,1.10
2019-02-11T20:31:54.670Z,1.30
2019-02-11T20:34:22.728Z,1.10
2019-02-11T20:36:51.119Z,1.03
2019-02-11T20:39:19.636Z,1.07
2019-02-11T20:41:48.033Z,1.20
2019-02-11T20:44:16.436Z,1.20
2019-02-11T20:46:44.827Z,1.00
2019-02-11T20:49:13.241Z,1.30
2019-02-11T20:51:41.712Z,0.90
2019-02-11T20:54:09.913Z,1.30
2019-02-11T20:56:38.304Z,1.13
2019-02-11T20:59:06.724Z,1.37
2019-02-11T21:01:35.116Z,1.27
2019-02-11T21:04:03.523Z,1.03
2019-02-11T21:06:31.914Z,1.20
2019-02-11T21:09:00.325Z,1.00
2019-02-11T21:11:28.392Z,1.00
2019-02-11T21:13:56.796Z,1.30
2019-02-11T21:16:24.865Z,1.30
2019-02-11T21:18:53.270Z,1.20
2019-02-11T21:21:21.412Z,0.87
2019-02-11T21:23:49.827Z,1.00
2019-02-11T21:26:18.227Z,0.80
2019-02-11T21:28:46.628Z,1.10
2019-02-11T21:31:15.062Z,0.80
2019-02-11T21:33:43.459Z,0.77
2019-02-11T21:36:11.860Z,0.80
2019-02-11T21:38:39.937Z,1.30
2019-02-11T21:41:08.340Z,1.10
2019-02-11T21:43:36.736Z,0.80
2019-02-11T21:46:24.482Z,1.13
2019-02-11T21:48:52.886Z,1.37
2019-02-11T21:51:20.965Z,0.63
2019-02-11T21:53:49.364Z,0.60
2019-02-11T21:56:17.921Z,0.50
2019-02-11T21:58:46.321Z,0.40
2019-02-11T22:01:14.914Z,0.30
2019-02-11T22:03:43.297Z,0.20
2019-02-11T22:06:11.702Z,0.40
2019-02-11T22:08:40.096Z,0.40
2019-02-11T22:11:08.177Z,0.50
2019-02-11T22:13:36.577Z,0.57
2019-02-11T22:16:04.986Z,0.40
2019-02-11T22:18:33.452Z,0.47
2019-02-11T22:21:01.862Z,0.37
2019-02-11T22:23:30.257Z,0.37
2019-02-11T22:25:58.664Z,0.27
2019-02-11T22:28:27.060Z,0.30
2019-02-11T22:30:55.472Z,0.40
2019-02-11T22:33:24.035Z,0.40
2019-02-11T22:35:52.439Z,0.20
2019-02-11T22:38:20.832Z,0.47
2019-02-11T22:40:49.237Z,0.60
2019-02-11T22:43:17.305Z,0.70
2019-02-11T22:45:45.716Z,0.67
2019-02-11T22:48:14.112Z,0.87
2019-02-11T22:50:43.354Z,0.77
2019-02-11T22:53:11.964Z,1.30
2019-02-11T22:55:40.372Z,1.27
2019-02-11T22:58:08.788Z,0.87
2019-02-11T23:00:47.267Z,1.50
2019-02-11T23:03:15.912Z,1.10
2019-02-11T23:05:44.019Z,1.07
2019-02-11T23:08:12.432Z,1.13
2019-02-11T23:10:40.871Z,1.43
2019-02-11T23:13:09.260Z,1.80
2019-02-11T23:15:37.892Z,1.33
2019-02-11T23:18:06.478Z,1.70
2019-02-11T23:20:34.872Z,1.23
2019-02-11T23:23:03.341Z,1.53
2019-02-11T23:25:34.378Z,1.60
2019-02-11T23:28:02.782Z,1.40
2019-02-11T23:30:31.828Z,2.10
2019-02-11T23:33:00.241Z,1.50
2019-02-11T23:35:28.637Z,1.40
2019-02-11T23:37:57.041Z,1.70
2019-02-11T23:40:25.103Z,2.20
2019-02-11T23:42:53.522Z,2.00
2019-02-11T23:45:21.595Z,2.10
2019-02-11T23:47:50.001Z,1.83
2019-02-11T23:50:18.400Z,1.73
2019-02-11T23:52:46.812Z,1.77
2019-02-11T23:55:15.289Z,1.83
2019-02-11T23:57:43.693Z,2.30
